sensor_id;sensor_type;location;lat;lon;timestamp;P1;durP1;ratioP1;P2;durP2;ratioP2
12114;SDS011;6121;49.810;6.418;2022-07-24T00:01:32;1.92;;;1.83;;
12114;SDS011;6121;49.810;6.418;2022-07-24T00:03:58;2.03;;;1.92;;
12114;SDS011;6121;49.810;6.418;2022-07-24T00:06:24;2.23;;;2.13;;
12114;SDS011;6121;49.810;6.418;2022-07-24T00:08:50;2.00;;;1.90;;
12114;SDS011;6121;49.810;6.418;2022-07-24T00:11:15;2.00;;;1.90;;
12114;SDS011;6121;49.810;6.418;2022-07-24T00:13:42;1.83;;;1.73;;
12114;SDS011;6121;49.810;6.418;2022-07-24T00:16:07;2.35;;;2.25;;
12114;SDS011;6121;49.810;6.418;2022-07-24T00:18:33;1.83;;;1.73;;
12114;SDS011;6121;49.810;6.418;2022-07-24T00:20:59;2.40;;;1.87;;
12114;SDS011;6121;49.810;6.418;2022-07-24T00:23:24;2.00;;;1.90;;
12114;SDS011;6121;49.810;6.418;2022-07-24T00:25:51;2.72;;;2.53;;
12114;SDS011;6121;49.810;6.418;2022-07-24T00:28:17;1.80;;;1.70;;
12114;SDS011;6121;49.810;6.418;2022-07-24T00:30:42;2.37;;;2.17;;
12114;SDS011;6121;49.810;6.418;2022-07-24T00:33:08;2.05;;;1.90;;
12114;SDS011;6121;49.810;6.418;2022-07-24T00:35:34;2.33;;;2.22;;
12114;SDS011;6121;49.810;6.418;2022-07-24T00:38:00;1.80;;;1.70;;
12114;SDS011;6121;49.810;6.418;2022-07-24T00:40:26;2.00;;;1.90;;
12114;SDS011;6121;49.810;6.418;2022-07-24T00:42:52;2.03;;;1.92;;
12114;SDS011;6121;49.810;6.418;2022-07-24T00:45:18;2.25;;;2.15;;
12114;SDS011;6121;49.810;6.418;2022-07-24T00:47:44;2.20;;;2.10;;
12114;SDS011;6121;49.810;6.418;2022-07-24T00:50:10;1.83;;;1.73;;
12114;SDS011;6121;49.810;6.418;2022-07-24T00:52:36;1.80;;;1.70;;
12114;SDS011;6121;49.810;6.418;2022-07-24T00:55:03;2.17;;;2.08;;
12114;SDS011;6121;49.810;6.418;2022-07-24T00:57:29;2.10;;;2.00;;
12114;SDS011;6121;49.810;6.418;2022-07-24T00:59:55;2.20;;;2.08;;
12114;SDS011;6121;49.810;6.418;2022-07-24T01:02:22;2.43;;;2.23;;
12114;SDS011;6121;49.810;6.418;2022-07-24T01:04:49;2.22;;;2.13;;
12114;SDS011;6121;49.810;6.418;2022-07-24T01:07:15;2.25;;;2.15;;
12114;SDS011;6121;49.810;6.418;2022-07-24T01:09:41;2.17;;;2.08;;
12114;SDS011;6121;49.810;6.418;2022-07-24T01:12:08;2.28;;;2.17;;
12114;SDS011;6121;49.810;6.418;2022-07-24T01:14:34;1.80;;;1.80;;
12114;SDS011;6121;49.810;6.418;2022-07-24T01:17:00;2.30;;;2.20;;
12114;SDS011;6121;49.810;6.418;2022-07-24T01:19:26;2.00;;;1.90;;
12114;SDS011;6121;49.810;6.418;2022-07-24T01:21:52;2.77;;;2.33;;
12114;SDS011;6121;49.810;6.418;2022-07-24T01:24:18;2.17;;;2.08;;
12114;SDS011;6121;49.810;6.418;2022-07-24T01:26:46;2.97;;;2.67;;
12114;SDS011;6121;49.810;6.418;2022-07-24T01:29:12;2.22;;;2.08;;
12114;SDS011;6121;49.810;6.418;2022-07-24T01:31:38;2.15;;;2.03;;
12114;SDS011;6121;49.810;6.418;2022-07-24T01:34:04;2.50;;;2.30;;
12114;SDS011;6121;49.810;6.418;2022-07-24T01:36:30;2.33;;;2.23;;
12114;SDS011;6121;49.810;6.418;2022-07-24T01:38:56;2.30;;;2.10;;
12114;SDS011;6121;49.810;6.418;2022-07-24T01:41:21;2.17;;;2.07;;
12114;SDS011;6121;49.810;6.418;2022-07-24T01:43:47;2.20;;;2.10;;
12114;SDS011;6121;49.810;6.418;2022-07-24T01:46:12;2.33;;;2.22;;
12114;SDS011;6121;49.810;6.418;2022-07-24T01:48:39;2.10;;;2.00;;
12114;SDS011;6121;49.810;6.418;2022-07-24T01:51:07;2.10;;;2.00;;
12114;SDS011;6121;49.810;6.418;2022-07-24T01:53:33;2.65;;;2.45;;
12114;SDS011;6121;49.810;6.418;2022-07-24T01:55:58;2.70;;;2.58;;
12114;SDS011;6121;49.810;6.418;2022-07-24T01:58:24;2.33;;;2.13;;
12114;SDS011;6121;49.810;6.418;2022-07-24T02:00:50;2.10;;;2.00;;
12114;SDS011;6121;49.810;6.418;2022-07-24T02:03:15;2.50;;;2.40;;
12114;SDS011;6121;49.810;6.418;2022-07-24T02:05:43;3.53;;;3.22;;
12114;SDS011;6121;49.810;6.418;2022-07-24T02:08:09;2.30;;;2.10;;
12114;SDS011;6121;49.810;6.418;2022-07-24T02:10:35;2.40;;;2.30;;
12114;SDS011;6121;49.810;6.418;2022-07-24T02:13:01;3.17;;;2.75;;
12114;SDS011;6121;49.810;6.418;2022-07-24T02:15:26;2.72;;;2.60;;
12114;SDS011;6121;49.810;6.418;2022-07-24T02:17:55;2.70;;;2.50;;
12114;SDS011;6121;49.810;6.418;2022-07-24T02:20:22;2.55;;;2.35;;
12114;SDS011;6121;49.810;6.418;2022-07-24T02:22:48;2.80;;;2.60;;
12114;SDS011;6121;49.810;6.418;2022-07-24T02:25:14;2.50;;;2.40;;
12114;SDS011;6121;49.810;6.418;2022-07-24T02:27:40;2.42;;;2.33;;
12114;SDS011;6121;49.810;6.418;2022-07-24T02:30:07;2.40;;;2.30;;
12114;SDS011;6121;49.810;6.418;2022-07-24T02:32:36;2.10;;;2.00;;
12114;SDS011;6121;49.810;6.418;2022-07-24T02:35:02;2.22;;;2.13;;
12114;SDS011;6121;49.810;6.418;2022-07-24T02:37:28;2.20;;;2.10;;
12114;SDS011;6121;49.810;6.418;2022-07-24T02:39:54;2.40;;;2.30;;
12114;SDS011;6121;49.810;6.418;2022-07-24T02:42:19;2.30;;;2.20;;
12114;SDS011;6121;49.810;6.418;2022-07-24T02:44:45;2.70;;;2.50;;
12114;SDS011;6121;49.810;6.418;2022-07-24T02:47:11;2.50;;;2.40;;
12114;SDS011;6121;49.810;6.418;2022-07-24T02:49:36;2.30;;;2.20;;
12114;SDS011;6121;49.810;6.418;2022-07-24T02:52:02;2.90;;;2.70;;
12114;SDS011;6121;49.810;6.418;2022-07-24T02:54:28;2.35;;;2.25;;
12114;SDS011;6121;49.810;6.418;2022-07-24T02:56:54;2.70;;;2.50;;
12114;SDS011;6121;49.810;6.418;2022-07-24T02:59:19;2.27;;;2.17;;
12114;SDS011;6121;49.810;6.418;2022-07-24T03:01:45;2.88;;;2.70;;
12114;SDS011;6121;49.810;6.418;2022-07-24T03:04:11;2.50;;;2.40;;
12114;SDS011;6121;49.810;6.418;2022-07-24T03:06:36;3.13;;;2.90;;
12114;SDS011;6121;49.810;6.418;2022-07-24T03:09:03;2.72;;;2.63;;
12114;SDS011;6121;49.810;6.418;2022-07-24T03:11:28;2.55;;;2.45;;
12114;SDS011;6121;49.810;6.418;2022-07-24T03:13:54;2.53;;;2.43;;
12114;SDS011;6121;49.810;6.418;2022-07-24T03:16:20;2.85;;;2.65;;
12114;SDS011;6121;49.810;6.418;2022-07-24T03:18:45;2.50;;;2.40;;
12114;SDS011;6121;49.810;6.418;2022-07-24T03:21:13;3.00;;;2.60;;
12114;SDS011;6121;49.810;6.418;2022-07-24T03:23:40;2.55;;;2.45;;
12114;SDS011;6121;49.810;6.418;2022-07-24T03:26:05;3.45;;;3.25;;
12114;SDS011;6121;49.810;6.418;2022-07-24T03:28:31;2.37;;;2.27;;
12114;SDS011;6121;49.810;6.418;2022-07-24T03:30:56;2.60;;;2.40;;
12114;SDS011;6121;49.810;6.418;2022-07-24T03:33:22;2.78;;;2.58;;
12114;SDS011;6121;49.810;6.418;2022-07-24T03:35:48;3.00;;;2.88;;
12114;SDS011;6121;49.810;6.418;2022-07-24T03:38:14;2.53;;;2.33;;
12114;SDS011;6121;49.810;6.418;2022-07-24T03:40:40;2.55;;;2.45;;
12114;SDS011;6121;49.810;6.418;2022-07-24T03:43:05;2.80;;;2.60;;
12114;SDS011;6121;49.810;6.418;2022-07-24T03:45:31;3.10;;;3.00;;
12114;SDS011;6121;49.810;6.418;2022-07-24T03:47:56;2.25;;;2.15;;
12114;SDS011;6121;49.810;6.418;2022-07-24T03:50:22;2.60;;;2.50;;
12114;SDS011;6121;49.810;6.418;2022-07-24T03:52:47;2.80;;;2.70;;
12114;SDS011;6121;49.810;6.418;2022-07-24T03:55:13;2.60;;;2.50;;
12114;SDS011;6121;49.810;6.418;2022-07-24T03:57:39;2.90;;;2.70;;
12114;SDS011;6121;49.810;6.418;2022-07-24T04:00:05;2.73;;;2.53;;
12114;SDS011;6121;49.810;6.418;2022-07-24T04:02:32;2.83;;;2.63;;
12114;SDS011;6121;49.810;6.418;2022-07-24T04:04:57;2.90;;;2.80;;
12114;SDS011;6121;49.810;6.418;2022-07-24T04:07:23;2.97;;;2.77;;
12114;SDS011;6121;49.810;6.418;2022-07-24T04:09:49;2.60;;;2.45;;
12114;SDS011;6121;49.810;6.418;2022-07-24T04:12:14;3.20;;;3.00;;
12114;SDS011;6121;49.810;6.418;2022-07-24T04:14:40;2.90;;;2.70;;
12114;SDS011;6121;49.810;6.418;2022-07-24T04:17:05;2.95;;;2.80;;
12114;SDS011;6121;49.810;6.418;2022-07-24T04:19:31;2.78;;;2.58;;
12114;SDS011;6121;49.810;6.418;2022-07-24T04:21:57;3.15;;;2.85;;
12114;SDS011;6121;49.810;6.418;2022-07-24T04:24:22;2.53;;;2.43;;
12114;SDS011;6121;49.810;6.418;2022-07-24T04:26:48;3.40;;;3.20;;
12114;SDS011;6121;49.810;6.418;2022-07-24T04:29:14;2.40;;;2.30;;
12114;SDS011;6121;49.810;6.418;2022-07-24T04:31:40;2.80;;;2.60;;
12114;SDS011;6121;49.810;6.418;2022-07-24T04:34:05;3.60;;;2.90;;
12114;SDS011;6121;49.810;6.418;2022-07-24T04:36:31;3.95;;;3.75;;
12114;SDS011;6121;49.810;6.418;2022-07-24T04:38:57;3.50;;;3.28;;
12114;SDS011;6121;49.810;6.418;2022-07-24T04:41:22;3.17;;;2.97;;
12114;SDS011;6121;49.810;6.418;2022-07-24T04:43:48;3.30;;;3.10;;
12114;SDS011;6121;49.810;6.418;2022-07-24T04:46:15;3.90;;;3.70;;
12114;SDS011;6121;49.810;6.418;2022-07-24T04:48:41;3.13;;;2.92;;
12114;SDS011;6121;49.810;6.418;2022-07-24T04:51:06;3.67;;;3.47;;
12114;SDS011;6121;49.810;6.418;2022-07-24T04:53:32;3.07;;;2.87;;
12114;SDS011;6121;49.810;6.418;2022-07-24T04:55:58;4.53;;;4.13;;
12114;SDS011;6121;49.810;6.418;2022-07-24T04:58:24;3.22;;;3.03;;
12114;SDS011;6121;49.810;6.418;2022-07-24T05:00:50;3.10;;;2.85;;
12114;SDS011;6121;49.810;6.418;2022-07-24T05:03:16;3.45;;;3.25;;
12114;SDS011;6121;49.810;6.418;2022-07-24T05:05:41;4.40;;;4.10;;
12114;SDS011;6121;49.810;6.418;2022-07-24T05:08:07;3.33;;;3.13;;
12114;SDS011;6121;49.810;6.418;2022-07-24T05:10:33;2.80;;;2.70;;
12114;SDS011;6121;49.810;6.418;2022-07-24T05:12:58;3.37;;;3.10;;
12114;SDS011;6121;49.810;6.418;2022-07-24T05:15:24;3.43;;;3.23;;
12114;SDS011;6121;49.810;6.418;2022-07-24T05:17:49;3.70;;;3.50;;
12114;SDS011;6121;49.810;6.418;2022-07-24T05:20:15;3.10;;;2.90;;
12114;SDS011;6121;49.810;6.418;2022-07-24T05:22:41;3.00;;;2.80;;
12114;SDS011;6121;49.810;6.418;2022-07-24T05:25:06;3.47;;;3.28;;
12114;SDS011;6121;49.810;6.418;2022-07-24T05:27:32;4.13;;;3.92;;
12114;SDS011;6121;49.810;6.418;2022-07-24T05:29:58;3.17;;;2.97;;
12114;SDS011;6121;49.810;6.418;2022-07-24T05:32:24;3.35;;;3.15;;
12114;SDS011;6121;49.810;6.418;2022-07-24T05:34:49;3.87;;;3.13;;
12114;SDS011;6121;49.810;6.418;2022-07-24T05:37:15;3.30;;;3.10;;
12114;SDS011;6121;49.810;6.418;2022-07-24T05:39:41;3.15;;;2.95;;
12114;SDS011;6121;49.810;6.418;2022-07-24T05:42:06;3.78;;;3.58;;
12114;SDS011;6121;49.810;6.418;2022-07-24T05:44:32;2.75;;;2.65;;
12114;SDS011;6121;49.810;6.418;2022-07-24T05:46:58;3.57;;;3.27;;
12114;SDS011;6121;49.810;6.418;2022-07-24T05:49:23;3.30;;;3.13;;
12114;SDS011;6121;49.810;6.418;2022-07-24T05:51:49;3.55;;;3.35;;
12114;SDS011;6121;49.810;6.418;2022-07-24T05:54:14;3.33;;;3.13;;
12114;SDS011;6121;49.810;6.418;2022-07-24T05:56:40;6.17;;;4.53;;
12114;SDS011;6121;49.810;6.418;2022-07-24T05:59:06;3.33;;;3.13;;
12114;SDS011;6121;49.810;6.418;2022-07-24T06:01:31;4.03;;;3.30;;
12114;SDS011;6121;49.810;6.418;2022-07-24T06:03:57;3.27;;;3.07;;
12114;SDS011;6121;49.810;6.418;2022-07-24T06:06:23;3.92;;;3.72;;
12114;SDS011;6121;49.810;6.418;2022-07-24T06:08:49;3.45;;;3.15;;
12114;SDS011;6121;49.810;6.418;2022-07-24T06:11:15;5.30;;;3.53;;
12114;SDS011;6121;49.810;6.418;2022-07-24T06:13:42;4.72;;;3.55;;
12114;SDS011;6121;49.810;6.418;2022-07-24T06:16:08;4.17;;;3.97;;
12114;SDS011;6121;49.810;6.418;2022-07-24T06:18:33;2.90;;;2.80;;
12114;SDS011;6121;49.810;6.418;2022-07-24T06:20:59;3.42;;;3.13;;
12114;SDS011;6121;49.810;6.418;2022-07-24T06:23:25;3.70;;;3.40;;
12114;SDS011;6121;49.810;6.418;2022-07-24T06:25:50;4.47;;;4.17;;
12114;SDS011;6121;49.810;6.418;2022-07-24T06:28:16;3.40;;;3.20;;
12114;SDS011;6121;49.810;6.418;2022-07-24T06:30:42;3.17;;;2.97;;
12114;SDS011;6121;49.810;6.418;2022-07-24T06:33:07;4.03;;;3.73;;
12114;SDS011;6121;49.810;6.418;2022-07-24T06:35:33;4.32;;;4.03;;
12114;SDS011;6121;49.810;6.418;2022-07-24T06:37:59;3.37;;;3.17;;
12114;SDS011;6121;49.810;6.418;2022-07-24T06:40:25;3.75;;;3.13;;
12114;SDS011;6121;49.810;6.418;2022-07-24T06:42:52;3.40;;;3.10;;
12114;SDS011;6121;49.810;6.418;2022-07-24T06:45:17;3.25;;;3.10;;
12114;SDS011;6121;49.810;6.418;2022-07-24T06:47:43;3.33;;;3.13;;
12114;SDS011;6121;49.810;6.418;2022-07-24T06:50:10;3.20;;;3.00;;
12114;SDS011;6121;49.810;6.418;2022-07-24T06:52:36;3.10;;;2.90;;
12114;SDS011;6121;49.810;6.418;2022-07-24T06:55:02;2.87;;;2.77;;
12114;SDS011;6121;49.810;6.418;2022-07-24T06:57:28;3.20;;;2.90;;
12114;SDS011;6121;49.810;6.418;2022-07-24T06:59:54;2.90;;;2.70;;
12114;SDS011;6121;49.810;6.418;2022-07-24T07:02:20;2.67;;;2.57;;
12114;SDS011;6121;49.810;6.418;2022-07-24T07:04:47;2.80;;;2.60;;
12114;SDS011;6121;49.810;6.418;2022-07-24T07:07:12;3.17;;;2.97;;
12114;SDS011;6121;49.810;6.418;2022-07-24T07:09:40;3.40;;;3.20;;
12114;SDS011;6121;49.810;6.418;2022-07-24T07:12:06;3.10;;;2.90;;
12114;SDS011;6121;49.810;6.418;2022-07-24T07:14:32;2.67;;;2.58;;
12114;SDS011;6121;49.810;6.418;2022-07-24T07:16:57;3.07;;;2.83;;
12114;SDS011;6121;49.810;6.418;2022-07-24T07:19:23;2.58;;;2.38;;
12114;SDS011;6121;49.810;6.418;2022-07-24T07:21:49;3.17;;;2.97;;
12114;SDS011;6121;49.810;6.418;2022-07-24T07:24:14;5.13;;;3.22;;
12114;SDS011;6121;49.810;6.418;2022-07-24T07:26:40;2.90;;;2.80;;
12114;SDS011;6121;49.810;6.418;2022-07-24T07:29:06;2.70;;;2.50;;
12114;SDS011;6121;49.810;6.418;2022-07-24T07:31:31;2.60;;;2.50;;
12114;SDS011;6121;49.810;6.418;2022-07-24T07:33:57;2.50;;;2.35;;
12114;SDS011;6121;49.810;6.418;2022-07-24T07:36:23;3.03;;;2.73;;
12114;SDS011;6121;49.810;6.418;2022-07-24T07:38:49;2.70;;;2.60;;
12114;SDS011;6121;49.810;6.418;2022-07-24T07:41:14;2.72;;;2.53;;
12114;SDS011;6121;49.810;6.418;2022-07-24T07:43:40;2.30;;;2.20;;
12114;SDS011;6121;49.810;6.418;2022-07-24T07:46:06;3.17;;;2.97;;
12114;SDS011;6121;49.810;6.418;2022-07-24T07:48:32;3.95;;;2.70;;
12114;SDS011;6121;49.810;6.418;2022-07-24T07:50:58;2.43;;;2.23;;
12114;SDS011;6121;49.810;6.418;2022-07-24T07:53:23;2.33;;;2.22;;
12114;SDS011;6121;49.810;6.418;2022-07-24T07:55:49;2.97;;;2.77;;
12114;SDS011;6121;49.810;6.418;2022-07-24T07:58:17;3.47;;;2.53;;
12114;SDS011;6121;49.810;6.418;2022-07-24T08:00:44;2.38;;;2.28;;
12114;SDS011;6121;49.810;6.418;2022-07-24T08:03:10;2.13;;;2.00;;
12114;SDS011;6121;49.810;6.418;2022-07-24T08:05:35;2.80;;;2.60;;
12114;SDS011;6121;49.810;6.418;2022-07-24T08:08:01;2.90;;;2.70;;
12114;SDS011;6121;49.810;6.418;2022-07-24T08:10:27;2.28;;;2.10;;
12114;SDS011;6121;49.810;6.418;2022-07-24T08:12:53;2.33;;;2.23;;
12114;SDS011;6121;49.810;6.418;2022-07-24T08:15:18;2.70;;;2.60;;
12114;SDS011;6121;49.810;6.418;2022-07-24T08:17:44;2.50;;;2.30;;
12114;SDS011;6121;49.810;6.418;2022-07-24T08:20:10;2.55;;;2.20;;
12114;SDS011;6121;49.810;6.418;2022-07-24T08:22:36;3.88;;;2.28;;
12114;SDS011;6121;49.810;6.418;2022-07-24T08:25:02;2.33;;;2.13;;
12114;SDS011;6121;49.810;6.418;2022-07-24T08:27:28;3.05;;;2.55;;
12114;SDS011;6121;49.810;6.418;2022-07-24T08:29:53;2.25;;;2.08;;
12114;SDS011;6121;49.810;6.418;2022-07-24T08:32:19;2.07;;;1.97;;
12114;SDS011;6121;49.810;6.418;2022-07-24T08:34:45;2.17;;;1.97;;
12114;SDS011;6121;49.810;6.418;2022-07-24T08:37:11;4.30;;;2.55;;
12114;SDS011;6121;49.810;6.418;2022-07-24T08:39:37;2.13;;;1.97;;
12114;SDS011;6121;49.810;6.418;2022-07-24T08:42:02;2.80;;;2.20;;
12114;SDS011;6121;49.810;6.418;2022-07-24T08:44:28;2.17;;;1.90;;
12114;SDS011;6121;49.810;6.418;2022-07-24T08:46:54;2.70;;;2.50;;
12114;SDS011;6121;49.810;6.418;2022-07-24T08:49:23;1.92;;;1.83;;
12114;SDS011;6121;49.810;6.418;2022-07-24T08:51:51;2.90;;;2.20;;
12114;SDS011;6121;49.810;6.418;2022-07-24T08:54:18;1.90;;;1.80;;
12114;SDS011;6121;49.810;6.418;2022-07-24T08:56:44;2.47;;;2.28;;
12114;SDS011;6121;49.810;6.418;2022-07-24T08:59:19;3.13;;;2.03;;
12114;SDS011;6121;49.810;6.418;2022-07-24T09:01:47;4.53;;;2.47;;
12114;SDS011;6121;49.810;6.418;2022-07-24T09:04:32;2.15;;;1.98;;
12114;SDS011;6121;49.810;6.418;2022-07-24T09:09:35;2.50;;;1.87;;
12114;SDS011;6121;49.810;6.418;2022-07-24T09:12:09;2.17;;;2.00;;
12114;SDS011;6121;49.810;6.418;2022-07-24T09:14:46;1.90;;;1.80;;
12114;SDS011;6121;49.810;6.418;2022-07-24T09:17:16;1.95;;;1.85;;
12114;SDS011;6121;49.810;6.418;2022-07-24T09:33:04;2.80;;;2.10;;
12114;SDS011;6121;49.810;6.418;2022-07-24T09:35:45;2.35;;;2.15;;
12114;SDS011;6121;49.810;6.418;2022-07-24T09:38:19;2.22;;;1.80;;
12114;SDS011;6121;49.810;6.418;2022-07-24T09:40:47;2.38;;;1.98;;
12114;SDS011;6121;49.810;6.418;2022-07-24T09:48:24;2.60;;;2.03;;
12114;SDS011;6121;49.810;6.418;2022-07-24T09:50:55;3.67;;;2.10;;
12114;SDS011;6121;49.810;6.418;2022-07-24T09:53:24;1.83;;;1.73;;
12114;SDS011;6121;49.810;6.418;2022-07-24T09:55:59;1.90;;;1.80;;
12114;SDS011;6121;49.810;6.418;2022-07-24T09:58:30;1.23;;;1.23;;
12114;SDS011;6121;49.810;6.418;2022-07-24T10:00:58;2.35;;;1.52;;
12114;SDS011;6121;49.810;6.418;2022-07-24T10:03:31;2.20;;;1.50;;
12114;SDS011;6121;49.810;6.418;2022-07-24T10:06:03;2.10;;;1.45;;
12114;SDS011;6121;49.810;6.418;2022-07-24T10:08:31;2.65;;;1.70;;
12114;SDS011;6121;49.810;6.418;2022-07-24T10:10:58;1.30;;;1.30;;
12114;SDS011;6121;49.810;6.418;2022-07-24T10:13:24;4.28;;;1.80;;
12114;SDS011;6121;49.810;6.418;2022-07-24T10:21:16;2.15;;;1.50;;
12114;SDS011;6121;49.810;6.418;2022-07-24T10:29:13;3.55;;;1.67;;
12114;SDS011;6121;49.810;6.418;2022-07-24T10:31:44;1.50;;;1.40;;
12114;SDS011;6121;49.810;6.418;2022-07-24T10:45:36;1.60;;;1.50;;
12114;SDS011;6121;49.810;6.418;2022-07-24T10:53:29;1.88;;;1.38;;
12114;SDS011;6121;49.810;6.418;2022-07-24T10:58:54;2.53;;;1.60;;
12114;SDS011;6121;49.810;6.418;2022-07-24T11:01:27;3.05;;;1.73;;
12114;SDS011;6121;49.810;6.418;2022-07-24T11:09:15;1.50;;;1.40;;
12114;SDS011;6121;49.810;6.418;2022-07-24T11:14:18;1.95;;;1.45;;
12114;SDS011;6121;49.810;6.418;2022-07-24T11:16:51;2.85;;;1.70;;
12114;SDS011;6121;49.810;6.418;2022-07-24T11:21:43;1.50;;;1.40;;
12114;SDS011;6121;49.810;6.418;2022-07-24T11:26:48;2.00;;;1.63;;
12114;SDS011;6121;49.810;6.418;2022-07-24T11:29:22;1.50;;;1.40;;
12114;SDS011;6121;49.810;6.418;2022-07-24T11:32:12;1.60;;;1.50;;
12114;SDS011;6121;49.810;6.418;2022-07-24T11:34:46;1.40;;;1.30;;
12114;SDS011;6121;49.810;6.418;2022-07-24T11:37:14;1.70;;;1.60;;
12114;SDS011;6121;49.810;6.418;2022-07-24T11:39:41;2.80;;;1.75;;
12114;SDS011;6121;49.810;6.418;2022-07-24T11:42:15;1.70;;;1.60;;
12114;SDS011;6121;49.810;6.418;2022-07-24T11:44:42;2.15;;;1.60;;
12114;SDS011;6121;49.810;6.418;2022-07-24T11:47:11;1.75;;;1.55;;
12114;SDS011;6121;49.810;6.418;2022-07-24T11:50:00;1.80;;;1.52;;
12114;SDS011;6121;49.810;6.418;2022-07-24T11:52:33;1.38;;;1.38;;
12114;SDS011;6121;49.810;6.418;2022-07-24T11:55:03;1.60;;;1.50;;
12114;SDS011;6121;49.810;6.418;2022-07-24T11:57:35;2.00;;;1.58;;
12114;SDS011;6121;49.810;6.418;2022-07-24T12:00:03;1.80;;;1.60;;
12114;SDS011;6121;49.810;6.418;2022-07-24T12:02:32;1.58;;;1.40;;
12114;SDS011;6121;49.810;6.418;2022-07-24T12:04:58;1.55;;;1.45;;
12114;SDS011;6121;49.810;6.418;2022-07-24T12:07:24;2.50;;;1.70;;
12114;SDS011;6121;49.810;6.418;2022-07-24T12:09:52;1.42;;;1.33;;
12114;SDS011;6121;49.810;6.418;2022-07-24T12:12:20;1.58;;;1.48;;
12114;SDS011;6121;49.810;6.418;2022-07-24T12:15:13;1.20;;;1.20;;
12114;SDS011;6121;49.810;6.418;2022-07-24T12:23:13;2.00;;;1.57;;
12114;SDS011;6121;49.810;6.418;2022-07-24T12:25:40;2.20;;;1.70;;
12114;SDS011;6121;49.810;6.418;2022-07-24T12:28:10;1.58;;;1.48;;
12114;SDS011;6121;49.810;6.418;2022-07-24T12:30:39;1.50;;;1.40;;
12114;SDS011;6121;49.810;6.418;2022-07-24T12:33:19;1.40;;;1.30;;
12114;SDS011;6121;49.810;6.418;2022-07-24T12:36:01;1.70;;;1.60;;
12114;SDS011;6121;49.810;6.418;2022-07-24T12:41:17;2.65;;;1.63;;
12114;SDS011;6121;49.810;6.418;2022-07-24T12:43:48;3.53;;;1.90;;
12114;SDS011;6121;49.810;6.418;2022-07-24T12:46:15;1.88;;;1.73;;
12114;SDS011;6121;49.810;6.418;2022-07-24T12:49:03;1.60;;;1.50;;
12114;SDS011;6121;49.810;6.418;2022-07-24T12:54:23;2.42;;;1.63;;
12114;SDS011;6121;49.810;6.418;2022-07-24T12:56:55;1.98;;;1.55;;
12114;SDS011;6121;49.810;6.418;2022-07-24T12:59:24;1.63;;;1.48;;
12114;SDS011;6121;49.810;6.418;2022-07-24T13:01:59;2.37;;;1.70;;
12114;SDS011;6121;49.810;6.418;2022-07-24T13:04:28;3.20;;;1.83;;
12114;SDS011;6121;49.810;6.418;2022-07-24T13:06:54;3.15;;;1.85;;
12114;SDS011;6121;49.810;6.418;2022-07-24T13:09:22;1.70;;;1.60;;
12114;SDS011;6121;49.810;6.418;2022-07-24T13:11:50;2.25;;;1.83;;
12114;SDS011;6121;49.810;6.418;2022-07-24T13:14:16;1.63;;;1.53;;
12114;SDS011;6121;49.810;6.418;2022-07-24T13:16:44;1.40;;;1.30;;
12114;SDS011;6121;49.810;6.418;2022-07-24T13:19:11;1.60;;;1.50;;
12114;SDS011;6121;49.810;6.418;2022-07-24T13:21:37;1.52;;;1.42;;
12114;SDS011;6121;49.810;6.418;2022-07-24T13:24:04;1.52;;;1.42;;
12114;SDS011;6121;49.810;6.418;2022-07-24T13:26:30;1.95;;;1.70;;
12114;SDS011;6121;49.810;6.418;2022-07-24T13:28:57;1.58;;;1.48;;
12114;SDS011;6121;49.810;6.418;2022-07-24T13:31:22;5.20;;;2.20;;
12114;SDS011;6121;49.810;6.418;2022-07-24T13:33:48;2.20;;;1.50;;
12114;SDS011;6121;49.810;6.418;2022-07-24T13:36:15;4.00;;;2.10;;
12114;SDS011;6121;49.810;6.418;2022-07-24T13:38:41;2.40;;;1.67;;
12114;SDS011;6121;49.810;6.418;2022-07-24T13:41:07;2.67;;;1.60;;
12114;SDS011;6121;49.810;6.418;2022-07-24T13:43:33;2.47;;;1.57;;
12114;SDS011;6121;49.810;6.418;2022-07-24T13:45:58;2.10;;;1.70;;
12114;SDS011;6121;49.810;6.418;2022-07-24T13:48:24;3.47;;;2.00;;
12114;SDS011;6121;49.810;6.418;2022-07-24T13:50:50;2.57;;;1.67;;
12114;SDS011;6121;49.810;6.418;2022-07-24T13:53:16;1.77;;;1.43;;
12114;SDS011;6121;49.810;6.418;2022-07-24T13:55:42;3.17;;;1.87;;
12114;SDS011;6121;49.810;6.418;2022-07-24T13:58:07;1.83;;;1.50;;
12114;SDS011;6121;49.810;6.418;2022-07-24T14:00:33;1.50;;;1.40;;
12114;SDS011;6121;49.810;6.418;2022-07-24T14:02:59;3.15;;;1.73;;
12114;SDS011;6121;49.810;6.418;2022-07-24T14:05:25;3.73;;;2.00;;
12114;SDS011;6121;49.810;6.418;2022-07-24T14:07:50;1.70;;;1.60;;
12114;SDS011;6121;49.810;6.418;2022-07-24T14:10:17;1.52;;;1.42;;
12114;SDS011;6121;49.810;6.418;2022-07-24T14:12:43;1.42;;;1.42;;
12114;SDS011;6121;49.810;6.418;2022-07-24T14:15:08;3.53;;;1.80;;
12114;SDS011;6121;49.810;6.418;2022-07-24T14:17:35;1.52;;;1.42;;
12114;SDS011;6121;49.810;6.418;2022-07-24T14:20:02;1.70;;;1.42;;
12114;SDS011;6121;49.810;6.418;2022-07-24T14:22:28;1.30;;;1.30;;
12114;SDS011;6121;49.810;6.418;2022-07-24T14:24:53;1.60;;;1.50;;
12114;SDS011;6121;49.810;6.418;2022-07-24T14:27:19;1.60;;;1.50;;
12114;SDS011;6121;49.810;6.418;2022-07-24T14:29:45;1.70;;;1.52;;
12114;SDS011;6121;49.810;6.418;2022-07-24T14:32:10;1.80;;;1.60;;
12114;SDS011;6121;49.810;6.418;2022-07-24T14:34:36;1.87;;;1.50;;
12114;SDS011;6121;49.810;6.418;2022-07-24T14:37:02;3.10;;;2.20;;
12114;SDS011;6121;49.810;6.418;2022-07-24T14:39:27;2.00;;;1.90;;
12114;SDS011;6121;49.810;6.418;2022-07-24T14:41:54;2.80;;;2.60;;
12114;SDS011;6121;49.810;6.418;2022-07-24T14:44:20;1.80;;;1.70;;
12114;SDS011;6121;49.810;6.418;2022-07-24T14:46:45;1.58;;;1.25;;
12114;SDS011;6121;49.810;6.418;2022-07-24T14:49:11;2.90;;;2.05;;
12114;SDS011;6121;49.810;6.418;2022-07-24T14:51:37;2.53;;;1.88;;
12114;SDS011;6121;49.810;6.418;2022-07-24T14:54:03;1.67;;;1.50;;
12114;SDS011;6121;49.810;6.418;2022-07-24T14:56:30;2.20;;;1.90;;
12114;SDS011;6121;49.810;6.418;2022-07-24T14:58:55;4.50;;;1.90;;
12114;SDS011;6121;49.810;6.418;2022-07-24T15:01:21;1.87;;;1.57;;
12114;SDS011;6121;49.810;6.418;2022-07-24T15:03:47;1.52;;;1.30;;
12114;SDS011;6121;49.810;6.418;2022-07-24T15:06:13;2.00;;;1.80;;
12114;SDS011;6121;49.810;6.418;2022-07-24T15:08:38;1.80;;;1.50;;
12114;SDS011;6121;49.810;6.418;2022-07-24T15:11:05;3.20;;;1.73;;
12114;SDS011;6121;49.810;6.418;2022-07-24T15:13:30;1.60;;;1.50;;
12114;SDS011;6121;49.810;6.418;2022-07-24T15:15:56;1.70;;;1.60;;
12114;SDS011;6121;49.810;6.418;2022-07-24T15:18:22;1.40;;;1.30;;
12114;SDS011;6121;49.810;6.418;2022-07-24T15:20:48;3.15;;;1.67;;
12114;SDS011;6121;49.810;6.418;2022-07-24T15:23:13;1.50;;;1.40;;
12114;SDS011;6121;49.810;6.418;2022-07-24T15:25:39;1.75;;;1.65;;
12114;SDS011;6121;49.810;6.418;2022-07-24T15:28:04;2.20;;;1.70;;
12114;SDS011;6121;49.810;6.418;2022-07-24T15:30:31;2.75;;;1.65;;
12114;SDS011;6121;49.810;6.418;2022-07-24T15:32:57;1.75;;;1.50;;
12114;SDS011;6121;49.810;6.418;2022-07-24T15:35:27;2.20;;;1.70;;
12114;SDS011;6121;49.810;6.418;2022-07-24T15:37:54;3.47;;;2.08;;
12114;SDS011;6121;49.810;6.418;2022-07-24T15:40:20;7.33;;;2.40;;
12114;SDS011;6121;49.810;6.418;2022-07-24T15:42:45;6.30;;;2.40;;
12114;SDS011;6121;49.810;6.418;2022-07-24T15:45:11;3.33;;;2.00;;
12114;SDS011;6121;49.810;6.418;2022-07-24T15:47:36;3.78;;;1.88;;
12114;SDS011;6121;49.810;6.418;2022-07-24T15:50:03;2.20;;;1.60;;
12114;SDS011;6121;49.810;6.418;2022-07-24T15:52:29;1.90;;;1.52;;
12114;SDS011;6121;49.810;6.418;2022-07-24T15:54:54;4.00;;;1.90;;
12114;SDS011;6121;49.810;6.418;2022-07-24T15:57:20;1.52;;;1.42;;
12114;SDS011;6121;49.810;6.418;2022-07-24T15:59:45;3.70;;;1.90;;
12114;SDS011;6121;49.810;6.418;2022-07-24T16:02:11;3.72;;;1.95;;
12114;SDS011;6121;49.810;6.418;2022-07-24T16:04:37;2.85;;;1.70;;
12114;SDS011;6121;49.810;6.418;2022-07-24T16:07:02;1.60;;;1.50;;
12114;SDS011;6121;49.810;6.418;2022-07-24T16:09:28;1.80;;;1.70;;
12114;SDS011;6121;49.810;6.418;2022-07-24T16:11:54;1.75;;;1.65;;
12114;SDS011;6121;49.810;6.418;2022-07-24T16:14:19;2.50;;;1.60;;